createdAt,value
2019-04-19T06:40:17.917Z,10.30
2019-04-19T06:41:21.482Z,10.30
2019-04-19T06:42:31.979Z,10.40
2019-04-19T06:43:40.927Z,10.50
2019-04-19T06:44:50.502Z,10.50
2019-04-19T06:45:52.808Z,10.50
2019-04-19T06:46:59.908Z,10.60
2019-04-19T06:47:56.968Z,10.60
2019-04-19T06:49:01.433Z,10.70
2019-04-19T06:49:59.518Z,10.70
2019-04-19T06:51:14.615Z,10.80
2019-04-19T06:52:14.999Z,10.80
2019-04-19T06:53:14.652Z,10.80
2019-04-19T06:54:27.053Z,10.90
2019-04-19T06:55:30.062Z,10.90
2019-04-19T06:56:34.950Z,10.90
2019-04-19T06:57:42.348Z,11.00
2019-04-19T06:58:47.097Z,11.00
2019-04-19T06:59:57.737Z,11.10
2019-04-19T07:01:04.794Z,11.10
2019-04-19T07:01:57.964Z,11.20
2019-04-19T07:03:00.513Z,11.20
2019-04-19T07:04:04.339Z,11.20
2019-04-19T07:05:22.986Z,11.20
2019-04-19T07:06:28.152Z,11.20
2019-04-19T07:07:37.949Z,11.30
2019-04-19T07:09:02.810Z,11.40
2019-04-19T07:09:54.423Z,11.40
2019-04-19T07:10:56.334Z,11.40
2019-04-19T07:12:04.464Z,11.40
2019-04-19T07:13:00.724Z,11.50
2019-04-19T07:13:59.758Z,11.50
2019-04-19T07:15:27.581Z,11.60
2019-04-19T07:16:24.696Z,11.70
2019-04-19T07:17:26.363Z,11.70
2019-04-19T07:18:25.005Z,11.80
2019-04-19T07:19:34.914Z,11.80
2019-04-19T07:20:33.672Z,11.80
2019-04-19T07:21:42.692Z,11.80
2019-04-19T07:22:48.390Z,11.90
2019-04-19T07:23:54.286Z,12.00
2019-04-19T07:25:04.994Z,12.00
2019-04-19T07:26:10.023Z,12.10
2019-04-19T07:27:12.530Z,12.10
2019-04-19T07:28:05.959Z,12.10
2019-04-19T07:29:04.313Z,12.00
2019-04-19T07:30:10.369Z,11.90
2019-04-19T07:31:15.148Z,11.90
2019-04-19T07:32:25.497Z,11.90
2019-04-19T07:33:37.059Z,12.00
2019-04-19T07:34:43.820Z,12.10
2019-04-19T07:35:57.537Z,12.20
2019-04-19T07:36:57.684Z,12.30
2019-04-19T07:38:11.003Z,12.50
2019-04-19T07:39:09.364Z,12.60
2019-04-19T07:40:20.238Z,12.60
2019-04-19T07:41:21.736Z,12.70
2019-04-19T07:42:27.496Z,12.80
2019-04-19T07:43:28.454Z,13.00
2019-04-19T07:44:35.167Z,13.00
2019-04-19T07:45:56.456Z,13.10
2019-04-19T07:47:06.822Z,13.20
2019-04-19T07:48:05.988Z,13.40
2019-04-19T07:49:04.183Z,13.50
2019-04-19T07:51:19.886Z,13.70
2019-04-19T07:52:24.443Z,13.90
2019-04-19T07:53:34.728Z,13.90
2019-04-19T07:54:33.183Z,14.00
2019-04-19T07:55:41.473Z,14.10
2019-04-19T07:56:54.710Z,14.20
2019-04-19T07:58:35.922Z,14.30
2019-04-19T07:59:16.650Z,14.40
2019-04-19T08:02:38.529Z,14.70
2019-04-19T08:04:48.555Z,14.90
2019-04-19T08:05:59.376Z,15.00
2019-04-19T08:07:01.457Z,15.10
2019-04-19T08:08:06.778Z,15.10
2019-04-19T08:09:02.613Z,15.30
2019-04-19T08:11:18.275Z,15.50
2019-04-19T08:12:19.046Z,15.60
2019-04-19T08:14:41.199Z,15.40
2019-04-19T08:15:37.627Z,15.30
2019-04-19T08:17:20.872Z,15.30
2019-04-19T08:17:56.459Z,15.40
2019-04-19T08:28:26.039Z,16.20
2019-04-19T08:29:28.891Z,16.20
2019-04-19T08:30:33.914Z,16.30
2019-04-19T08:31:29.761Z,16.30
2019-04-19T08:32:34.384Z,16.30
2019-04-19T08:33:38.806Z,16.40
2019-04-19T08:34:43.575Z,16.40
2019-04-19T08:35:52.444Z,16.40
2019-04-19T08:36:59.635Z,16.40
2019-04-19T08:38:03.303Z,16.50
2019-04-19T08:39:21.749Z,16.60
2019-04-19T08:40:32.333Z,16.70
2019-04-19T08:41:25.473Z,16.80
2019-04-19T08:42:39.622Z,16.90
2019-04-19T08:43:45.069Z,16.90
2019-04-19T08:44:43.063Z,17.20
2019-04-19T08:45:43.032Z,17.30
2019-04-19T08:46:51.508Z,17.40
2019-04-19T08:48:18.889Z,17.60
2019-04-19T08:49:32.011Z,17.70
2019-04-19T08:50:30.901Z,17.80
2019-04-19T08:51:39.967Z,17.90
2019-04-19T08:52:42.094Z,17.90
2019-04-19T08:54:04.435Z,18.10
2019-04-19T08:55:13.901Z,18.10
2019-04-19T08:56:11.725Z,18.20
2019-04-19T08:57:08.193Z,18.30
2019-04-19T08:58:16.346Z,18.30
2019-04-19T08:59:38.611Z,18.40
2019-04-19T09:00:53.181Z,18.50
2019-04-19T09:01:44.447Z,18.60
2019-04-19T09:02:45.396Z,18.70
2019-04-19T09:03:56.964Z,18.80
2019-04-19T09:04:58.984Z,18.80
2019-04-19T09:06:25.223Z,18.90
2019-04-19T09:07:35.219Z,19.00
2019-04-19T09:08:18.394Z,19.10
2019-04-19T09:09:23.693Z,19.10
2019-04-19T09:10:41.455Z,19.20
2019-04-19T09:11:30.059Z,19.30
2019-04-19T09:12:34.579Z,19.40
2019-04-19T09:13:44.461Z,19.40
2019-04-19T09:14:52.564Z,19.50
2019-04-19T09:15:55.013Z,19.60
2019-04-19T09:17:01.365Z,19.70
2019-04-19T09:19:17.503Z,19.90
2019-04-19T09:20:15.636Z,19.90
2019-04-19T09:21:18.163Z,19.90
2019-04-19T09:22:24.293Z,20.10
2019-04-19T09:23:24.771Z,20.30
2019-04-19T09:24:28.994Z,20.40
2019-04-19T09:25:46.449Z,20.60
2019-04-19T09:26:57.755Z,20.70
2019-04-19T09:28:17.073Z,20.70
2019-04-19T09:29:17.999Z,20.80
2019-04-19T09:30:21.609Z,20.80
2019-04-19T09:31:22.694Z,20.80
2019-04-19T09:32:16.725Z,20.80
2019-04-19T09:33:22.675Z,20.90
2019-04-19T09:34:23.272Z,21.00
2019-04-19T09:35:30.982Z,21.20
2019-04-19T09:36:40.763Z,21.10
2019-04-19T09:37:52.360Z,21.20
2019-04-19T09:38:55.494Z,21.40
2019-04-19T09:39:56.650Z,21.50
2019-04-19T09:41:00.830Z,21.60
2019-04-19T09:42:03.150Z,21.70
2019-04-19T09:43:19.780Z,21.80
2019-04-19T09:44:15.879Z,21.80
2019-04-19T09:45:14.606Z,21.90
2019-04-19T09:46:18.945Z,22.00
2019-04-19T09:47:23.004Z,22.10
2019-04-19T09:48:48.667Z,22.10
2019-04-19T09:49:51.367Z,22.00
2019-04-19T09:50:53.921Z,21.80
2019-04-19T09:51:58.726Z,21.80
2019-04-19T09:53:18.089Z,21.60
2019-04-19T09:54:16.989Z,21.60
2019-04-19T09:55:22.738Z,21.70
2019-04-19T09:56:25.049Z,21.90
2019-04-19T09:57:27.907Z,22.00
2019-04-19T09:58:31.828Z,22.10
2019-04-19T09:59:25.840Z,22.30
2019-04-19T10:00:28.957Z,22.50
2019-04-19T10:01:38.232Z,22.50
2019-04-19T10:02:44.350Z,22.40
2019-04-19T10:03:47.458Z,22.30
2019-04-19T10:04:48.505Z,22.40
2019-04-19T10:05:54.754Z,22.60
2019-04-19T10:06:58.632Z,22.60
2019-04-19T10:08:03.879Z,22.70
2019-04-19T10:09:15.391Z,22.60
2019-04-19T10:10:16.120Z,22.60
2019-04-19T10:11:20.954Z,22.60
2019-04-19T10:12:25.219Z,22.50
2019-04-19T10:13:30.022Z,22.60
2019-04-19T10:14:33.715Z,22.80
2019-04-19T10:15:45.993Z,22.70
2019-04-19T10:16:52.706Z,22.70
2019-04-19T10:17:56.497Z,22.60
2019-04-19T10:19:04.979Z,22.70
2019-04-19T10:20:07.335Z,22.80
2019-04-19T10:21:20.299Z,23.00
2019-04-19T10:22:18.618Z,23.20
2019-04-19T10:23:23.096Z,23.10
2019-04-19T10:24:27.872Z,23.00
2019-04-19T10:25:33.491Z,23.00
2019-04-19T10:26:48.363Z,23.00
2019-04-19T10:27:52.108Z,23.10
2019-04-19T10:28:56.315Z,23.10
2019-04-19T10:30:00.176Z,22.90
2019-04-19T10:31:11.443Z,22.90
2019-04-19T10:32:16.839Z,22.90
2019-04-19T10:33:29.703Z,23.10
2019-04-19T10:34:25.671Z,23.10
2019-04-19T10:35:29.492Z,23.10
2019-04-19T10:36:33.144Z,23.00
2019-04-19T10:37:37.757Z,23.00
2019-04-19T10:38:41.394Z,22.90
2019-04-19T10:39:45.707Z,22.80
2019-04-19T10:40:49.395Z,22.90
2019-04-19T10:41:54.249Z,23.00
2019-04-19T10:42:58.982Z,23.10
2019-04-19T10:44:10.571Z,23.20
2019-04-19T10:45:10.021Z,23.20
2019-04-19T10:46:13.633Z,23.00
2019-04-19T10:47:17.267Z,23.00
2019-04-19T10:48:21.900Z,23.10
2019-04-19T10:49:33.425Z,23.20
2019-04-19T10:50:41.973Z,23.20
2019-04-19T10:51:46.577Z,23.00
2019-04-19T10:52:50.161Z,23.00
2019-04-19T10:53:54.590Z,23.10
2019-04-19T10:54:59.428Z,23.10
2019-04-19T10:56:08.033Z,23.20
2019-04-19T10:57:17.463Z,23.20
2019-04-19T10:58:21.451Z,23.20
2019-04-19T10:59:25.059Z,23.20
2019-04-19T11:00:29.309Z,23.10
2019-04-19T11:01:33.567Z,23.00
2019-04-19T11:02:38.434Z,23.00
2019-04-19T11:03:42.205Z,23.00
2019-04-19T11:04:46.852Z,22.80
2019-04-19T11:05:50.764Z,22.80
2019-04-19T11:06:56.272Z,23.00
2019-04-19T11:08:01.332Z,23.10
2019-04-19T11:09:06.808Z,23.10
2019-04-19T11:10:11.907Z,23.30
2019-04-19T11:11:15.897Z,23.40
2019-04-19T11:12:19.834Z,23.40
2019-04-19T11:13:27.366Z,23.40
2019-04-19T11:14:28.735Z,23.50
2019-04-19T11:15:32.311Z,23.30
2019-04-19T11:16:36.027Z,23.30
2019-04-19T11:17:39.588Z,23.30
2019-04-19T11:18:43.556Z,23.40
2019-04-19T11:20:01.069Z,23.40
2019-04-19T11:20:54.533Z,23.60
2019-04-19T11:21:57.583Z,23.70
2019-04-19T11:23:01.788Z,23.80
2019-04-19T11:24:05.523Z,24.00
2019-04-19T11:25:10.263Z,24.10
2019-04-19T11:26:14.849Z,24.20
2019-04-19T11:27:19.301Z,24.10
2019-04-19T11:28:22.905Z,24.00
2019-04-19T11:29:26.556Z,24.00
2019-04-19T11:30:37.617Z,23.90
2019-04-19T11:31:59.811Z,24.00
2019-04-19T11:33:05.185Z,24.00
2019-04-19T11:34:08.920Z,23.60
2019-04-19T11:35:13.826Z,23.50
2019-04-19T11:36:17.650Z,23.60
2019-04-19T11:37:21.230Z,23.70
2019-04-19T11:38:25.097Z,23.70
2019-04-19T11:39:28.985Z,23.70
2019-04-19T11:40:33.136Z,23.80
2019-04-19T11:41:36.961Z,23.90
2019-04-19T11:42:41.407Z,23.60
2019-04-19T11:43:45.325Z,23.40
2019-04-19T11:44:49.841Z,22.90
2019-04-19T11:45:53.697Z,22.80
2019-04-19T11:46:58.289Z,22.90
2019-04-19T11:48:03.096Z,23.10
2019-04-19T11:49:07.945Z,23.30
2019-04-19T11:50:12.058Z,23.50
2019-04-19T11:51:16.068Z,23.60
2019-04-19T11:52:21.966Z,23.80
2019-04-19T11:53:27.368Z,24.00
2019-04-19T11:54:30.949Z,24.10
2019-04-19T11:55:36.144Z,24.20
2019-04-19T11:56:50.645Z,24.20
2019-04-19T11:57:52.419Z,24.30
2019-04-19T11:59:00.589Z,24.40
2019-04-19T12:00:22.524Z,24.50
2019-04-19T12:01:28.099Z,24.50
2019-04-19T12:02:33.726Z,24.60
2019-04-19T12:03:40.231Z,24.40
2019-04-19T12:04:42.561Z,24.20
2019-04-19T12:05:46.302Z,24.10
2019-04-19T12:06:50.269Z,24.20
2019-04-19T12:07:54.751Z,24.20
2019-04-19T12:08:58.534Z,24.30
2019-04-19T12:10:03.053Z,24.30
2019-04-19T12:11:08.434Z,24.20
2019-04-19T12:12:12.866Z,24.20
2019-04-19T12:13:17.233Z,24.40
2019-04-19T12:14:21.810Z,24.40
2019-04-19T12:15:29.243Z,24.30
2019-04-19T12:16:32.898Z,24.40
2019-04-19T12:17:37.033Z,24.30
2019-04-19T12:18:41.876Z,24.40
2019-04-19T12:19:52.184Z,24.10
2019-04-19T12:20:51.229Z,24.10
2019-04-19T12:21:55.625Z,24.20
2019-04-19T12:23:00.041Z,24.20
2019-04-19T12:24:04.688Z,24.10
2019-04-19T12:25:09.991Z,24.10
2019-04-19T12:26:13.863Z,23.90
2019-04-19T12:27:17.939Z,23.80
2019-04-19T12:28:21.770Z,23.90
2019-04-19T12:29:34.529Z,24.10
2019-04-19T12:30:31.554Z,24.10
2019-04-19T12:31:35.135Z,24.10
2019-04-19T12:32:41.501Z,24.00
2019-04-19T12:33:45.173Z,24.00
2019-04-19T12:34:48.813Z,24.10
2019-04-19T12:35:53.020Z,24.00
2019-04-19T12:36:57.263Z,23.90
2019-04-19T12:38:01.959Z,23.60
2019-04-19T12:39:09.311Z,23.50
2019-04-19T12:40:14.880Z,23.70
2019-04-19T12:41:19.714Z,23.90
2019-04-19T12:42:31.738Z,24.00
2019-04-19T12:43:36.128Z,24.20
2019-04-19T12:44:40.586Z,24.30
2019-04-19T12:45:47.717Z,24.50
2019-04-19T12:46:50.860Z,24.20
2019-04-19T12:47:55.238Z,24.30
2019-04-19T12:48:58.967Z,24.50
2019-04-19T12:50:07.081Z,24.50
2019-04-19T12:51:08.054Z,24.50
2019-04-19T12:52:12.390Z,24.50
2019-04-19T12:53:17.017Z,24.50
2019-04-19T12:54:20.808Z,24.60
2019-04-19T12:55:24.393Z,24.50
2019-04-19T12:56:28.054Z,24.60
2019-04-19T12:57:34.073Z,24.50
2019-04-19T12:58:37.935Z,24.50
2019-04-19T12:59:42.214Z,24.20
2019-04-19T13:00:48.100Z,24.40
2019-04-19T13:01:57.713Z,24.40
2019-04-19T13:03:18.064Z,24.30
2019-04-19T13:04:24.378Z,24.40
2019-04-19T13:05:39.457Z,24.60
2019-04-19T13:06:44.700Z,24.90
2019-04-19T13:07:49.265Z,25.00
2019-04-19T13:08:53.091Z,25.00
2019-04-19T13:09:57.181Z,25.00
2019-04-19T13:11:00.899Z,25.00
2019-04-19T13:12:05.205Z,25.00
2019-04-19T13:13:09.868Z,24.90
2019-04-19T13:14:13.541Z,25.10
2019-04-19T13:15:17.753Z,25.20
2019-04-19T13:16:22.196Z,24.80
2019-04-19T13:17:26.405Z,24.70
2019-04-19T13:18:30.156Z,24.60
2019-04-19T13:19:33.698Z,24.60
2019-04-19T13:20:38.867Z,24.80
2019-04-19T13:21:42.755Z,24.90
2019-04-19T13:22:46.523Z,25.00
2019-04-19T13:23:50.623Z,25.30
2019-04-19T13:24:55.192Z,25.50
2019-04-19T13:25:59.564Z,25.60
2019-04-19T13:27:03.361Z,25.70
2019-04-19T13:28:07.939Z,25.30
2019-04-19T13:29:11.622Z,25.10
2019-04-19T13:30:27.103Z,25.40
2019-04-19T13:31:22.913Z,25.40
2019-04-19T13:32:26.523Z,25.40
2019-04-19T13:33:30.350Z,25.00
2019-04-19T13:34:33.967Z,25.10
2019-04-19T13:35:39.269Z,25.30
2019-04-19T13:36:45.093Z,25.50
2019-04-19T13:37:51.406Z,25.70
2019-04-19T13:39:13.223Z,26.10
2019-04-19T13:40:19.863Z,26.30
2019-04-19T13:41:41.255Z,26.40
2019-04-19T13:42:44.829Z,26.40
2019-04-19T13:43:48.933Z,26.80
2019-04-19T13:44:53.127Z,26.60
2019-04-19T13:45:56.848Z,26.50
2019-04-19T13:47:00.496Z,26.50
2019-04-19T13:48:04.815Z,26.40
2019-04-19T13:49:09.004Z,26.00
2019-04-19T13:50:22.121Z,25.90
2019-04-19T13:51:20.538Z,26.00
2019-04-19T13:52:24.308Z,26.00
2019-04-19T13:53:28.859Z,26.10
2019-04-19T13:54:32.923Z,26.20
2019-04-19T13:55:36.928Z,26.20
2019-04-19T13:56:40.721Z,26.00
2019-04-19T13:57:46.060Z,25.80
2019-04-19T13:58:49.855Z,25.70
2019-04-19T13:59:59.845Z,25.30
2019-04-19T14:00:58.667Z,25.40
2019-04-19T14:02:02.275Z,25.40
2019-04-19T14:03:05.846Z,25.60
2019-04-19T14:04:09.412Z,25.70
2019-04-19T14:05:13.603Z,25.50
2019-04-19T14:06:18.171Z,25.60
2019-04-19T14:07:23.120Z,25.60
2019-04-19T14:08:29.609Z,25.70
2019-04-19T14:09:33.616Z,25.60
2019-04-19T14:10:37.695Z,25.40
2019-04-19T14:11:41.269Z,25.20
2019-04-19T14:12:45.261Z,25.00
2019-04-19T14:13:53.808Z,25.10
2019-04-19T14:14:55.004Z,25.00
2019-04-19T14:15:58.782Z,25.00
2019-04-19T14:17:02.511Z,25.20
2019-04-19T14:18:06.712Z,25.10
2019-04-19T14:19:11.744Z,25.00
2019-04-19T14:20:27.630Z,25.00
2019-04-19T14:21:22.061Z,25.10
2019-04-19T14:22:25.777Z,25.30
2019-04-19T14:23:29.416Z,25.40
2019-04-19T14:24:33.449Z,25.40
2019-04-19T14:25:37.232Z,25.30
2019-04-19T14:26:48.001Z,25.50
2019-04-19T14:27:47.483Z,25.40
2019-04-19T14:28:51.524Z,25.40
2019-04-19T14:29:55.208Z,25.20
2019-04-19T14:31:02.915Z,25.30
2019-04-19T14:32:05.379Z,25.40
2019-04-19T14:33:09.095Z,25.50
2019-04-19T14:34:13.151Z,25.70
2019-04-19T14:35:17.450Z,25.80
2019-04-19T14:36:21.952Z,26.00
2019-04-19T14:37:25.779Z,26.10
2019-04-19T14:38:29.819Z,26.20
2019-04-19T14:39:34.433Z,26.40
2019-04-19T14:40:39.693Z,26.10
2019-04-19T14:41:43.574Z,26.20
2019-04-19T14:42:47.067Z,26.10
2019-04-19T14:43:50.636Z,26.30
2019-04-19T14:44:54.202Z,26.40
2019-04-19T14:45:58.131Z,26.40
2019-04-19T14:47:03.012Z,26.20
2019-04-19T14:48:06.829Z,26.00
2019-04-19T14:49:11.163Z,25.70
2019-04-19T14:50:16.785Z,25.60
2019-04-19T14:51:26.665Z,25.50
2019-04-19T14:52:25.939Z,25.40
2019-04-19T14:53:30.658Z,25.20
2019-04-19T14:54:35.054Z,24.90
2019-04-19T14:55:38.823Z,25.10
2019-04-19T14:56:43.451Z,24.80
2019-04-19T14:57:47.214Z,24.80
2019-04-19T14:58:50.783Z,25.00
2019-04-19T14:59:54.675Z,25.10
2019-04-19T15:01:17.181Z,25.30
2019-04-19T15:02:29.054Z,25.40
2019-04-19T15:03:32.861Z,25.30
2019-04-19T15:04:42.661Z,25.30
2019-04-19T15:05:48.044Z,25.20
2019-04-19T15:06:51.645Z,25.40
2019-04-19T15:07:56.765Z,25.30
2019-04-19T15:09:01.484Z,25.30
2019-04-19T15:10:07.202Z,25.20
2019-04-19T15:11:11.807Z,25.30
2019-04-19T15:12:16.470Z,25.30
2019-04-19T15:13:20.968Z,25.40
2019-04-19T15:14:24.559Z,25.50
2019-04-19T15:15:29.067Z,25.50
2019-04-19T15:16:33.613Z,25.50
2019-04-19T15:17:38.701Z,25.40
2019-04-19T15:18:42.901Z,25.40
2019-04-19T15:19:47.133Z,25.80
2019-04-19T15:20:59.380Z,25.90
2019-04-19T15:21:58.534Z,25.70
2019-04-19T15:23:02.452Z,25.60
2019-04-19T15:24:06.326Z,25.60
2019-04-19T15:25:10.844Z,25.70
2019-04-19T15:26:14.607Z,25.70
2019-04-19T15:27:19.113Z,25.90
2019-04-19T15:28:23.242Z,26.10
2019-04-19T15:29:27.164Z,25.70
2019-04-19T15:30:30.875Z,25.50
2019-04-19T15:31:34.558Z,25.20
2019-04-19T15:32:38.339Z,25.00
2019-04-19T15:33:42.641Z,24.80
2019-04-19T15:34:47.764Z,24.80
2019-04-19T15:35:51.947Z,25.00
2019-04-19T15:36:55.701Z,25.10
2019-04-19T15:37:59.331Z,25.00
2019-04-19T15:39:03.917Z,25.00
2019-04-19T15:40:09.894Z,25.20
2019-04-19T15:41:14.293Z,25.20
2019-04-19T15:42:18.449Z,25.00
2019-04-19T15:43:23.343Z,25.00
2019-04-19T15:44:27.006Z,24.70
2019-04-19T15:45:31.281Z,24.70
2019-04-19T15:46:35.633Z,24.80
2019-04-19T15:47:39.248Z,24.90
2019-04-19T15:48:47.642Z,25.00
2019-04-19T15:49:48.283Z,24.80
2019-04-19T15:50:53.066Z,24.70
2019-04-19T15:51:57.431Z,24.70
2019-04-19T15:53:02.067Z,24.90
2019-04-19T15:54:06.183Z,24.90
2019-04-19T15:55:12.263Z,24.80
2019-04-19T15:56:16.195Z,24.60
2019-04-19T15:57:20.517Z,24.60
2019-04-19T15:58:24.561Z,24.70
2019-04-19T15:59:28.431Z,24.60
2019-04-19T16:00:48.485Z,24.70
2019-04-19T16:01:53.758Z,24.70
2019-04-19T16:03:00.091Z,24.80
2019-04-19T16:04:03.896Z,24.90
2019-04-19T16:05:10.293Z,24.80
2019-04-19T16:06:18.760Z,24.80
2019-04-19T16:07:24.089Z,24.70
2019-04-19T16:08:32.425Z,24.50
2019-04-19T16:09:43.116Z,24.60
2019-04-19T16:11:04.662Z,24.50
2019-04-19T16:12:09.816Z,24.70
2019-04-19T16:13:13.887Z,24.40
2019-04-19T16:14:17.753Z,24.30
2019-04-19T16:15:22.140Z,24.10
2019-04-19T16:16:26.894Z,24.00
2019-04-19T16:17:31.427Z,24.10
2019-04-19T16:18:36.125Z,24.00
2019-04-19T16:19:41.554Z,24.10
2019-04-19T16:20:47.268Z,24.20
2019-04-19T16:21:55.661Z,24.20
2019-04-19T16:22:56.205Z,24.10
2019-04-19T16:24:00.901Z,24.10
2019-04-19T16:25:07.396Z,24.20
2019-04-19T16:26:11.078Z,24.10
2019-04-19T16:27:15.415Z,24.10
2019-04-19T16:28:19.332Z,24.00
2019-04-19T16:29:33.667Z,24.10
2019-04-19T16:30:28.333Z,24.20
2019-04-19T16:31:32.731Z,24.30
2019-04-19T16:32:37.029Z,24.30
2019-04-19T16:33:40.674Z,24.40
2019-04-19T16:34:45.188Z,24.40
2019-04-19T16:35:48.862Z,24.30
2019-04-19T16:36:52.403Z,24.20
2019-04-19T16:37:56.010Z,24.10
2019-04-19T16:39:00.876Z,24.00
2019-04-19T16:40:07.665Z,23.80
2019-04-19T16:41:11.235Z,23.70
2019-04-19T16:42:14.806Z,23.50
2019-04-19T16:43:19.509Z,23.40
2019-04-19T16:44:23.582Z,23.30
2019-04-19T16:45:28.134Z,23.10
2019-04-19T16:46:33.631Z,23.10
2019-04-19T16:47:37.482Z,23.00
2019-04-19T16:48:42.361Z,23.00
2019-04-19T16:49:46.773Z,23.00
2019-04-19T16:50:50.509Z,23.10
2019-04-19T16:51:57.540Z,23.00
2019-04-19T16:53:02.046Z,22.90
2019-04-19T16:54:04.648Z,22.90
2019-04-19T16:55:09.428Z,22.80
2019-04-19T16:56:13.023Z,22.70
2019-04-19T16:57:23.118Z,22.70
2019-04-19T16:58:21.823Z,22.70
2019-04-19T16:59:25.914Z,22.80
2019-04-19T17:00:42.807Z,22.80
2019-04-19T17:01:46.628Z,22.80
2019-04-19T17:02:51.095Z,22.60
2019-04-19T17:03:55.452Z,22.60
2019-04-19T17:04:59.268Z,22.60
2019-04-19T17:06:02.844Z,22.50
2019-04-19T17:07:06.835Z,22.40
2019-04-19T17:08:11.442Z,22.30
2019-04-19T17:09:15.208Z,22.30
2019-04-19T17:10:20.313Z,22.30
2019-04-19T17:11:24.097Z,22.30
2019-04-19T17:12:28.568Z,22.30
2019-04-19T17:13:32.971Z,22.40
2019-04-19T17:14:36.839Z,22.30
2019-04-19T17:15:59.650Z,22.20
2019-04-19T17:17:22.568Z,22.10
2019-04-19T17:18:46.175Z,22.10
2019-04-19T17:19:55.054Z,22.10
2019-04-19T17:21:10.111Z,21.90
2019-04-19T17:22:18.866Z,22.00
2019-04-19T17:23:19.022Z,21.90
2019-04-19T17:24:23.137Z,21.80
2019-04-19T17:25:28.685Z,21.80
2019-04-19T17:26:33.176Z,21.90
2019-04-19T17:27:38.666Z,21.80
2019-04-19T17:28:44.023Z,21.90
2019-04-19T17:29:47.823Z,21.80
2019-04-19T17:30:51.414Z,21.80
2019-04-19T17:31:56.146Z,21.80
2019-04-19T17:33:00.707Z,21.80
2019-04-19T17:34:06.439Z,21.70
2019-04-19T17:35:12.148Z,21.70
2019-04-19T17:36:15.912Z,21.70
2019-04-19T17:37:20.241Z,21.70
2019-04-19T17:38:32.197Z,21.70
2019-04-19T17:39:29.207Z,21.60
2019-04-19T17:40:32.794Z,21.40
2019-04-19T17:41:38.461Z,21.40
2019-04-19T17:42:42.424Z,21.30
2019-04-19T17:43:47.777Z,21.30
2019-04-19T17:44:51.593Z,21.30
2019-04-19T17:45:55.242Z,21.20
2019-04-19T17:46:58.819Z,21.20
2019-04-19T17:48:02.648Z,21.30
2019-04-19T17:49:06.568Z,21.30
2019-04-19T17:50:11.036Z,21.30
2019-04-19T17:51:15.809Z,21.20
2019-04-19T17:52:26.165Z,21.20
2019-04-19T17:53:32.658Z,21.20
2019-04-19T17:54:50.922Z,21.10
2019-04-19T17:55:42.541Z,21.20
2019-04-19T17:56:41.529Z,21.10
2019-04-19T17:57:45.377Z,21.10
2019-04-19T17:58:48.895Z,21.20
2019-04-19T17:59:52.471Z,21.10
2019-04-19T18:00:56.259Z,21.00
2019-04-19T18:02:01.101Z,21.00
2019-04-19T18:03:05.079Z,21.00
2019-04-19T18:04:09.128Z,21.00
2019-04-19T18:05:13.981Z,21.00
2019-04-19T18:06:18.295Z,21.00
2019-04-19T18:07:25.887Z,21.00
2019-04-19T18:08:30.982Z,20.90
2019-04-19T18:09:33.088Z,20.80
2019-04-19T18:10:44.358Z,20.80
2019-04-19T18:11:43.063Z,20.70
2019-04-19T18:12:47.482Z,20.70
2019-04-19T18:13:51.078Z,20.70
2019-04-19T18:14:55.465Z,20.60
2019-04-19T18:16:00.663Z,20.50
2019-04-19T18:17:04.399Z,20.50
2019-04-19T18:18:09.956Z,20.50
2019-04-19T18:19:16.748Z,20.40
2019-04-19T18:20:21.217Z,20.40
2019-04-19T18:21:30.801Z,20.30
2019-04-19T18:22:38.839Z,20.30
2019-04-19T18:23:43.006Z,20.30
2019-04-19T18:24:47.754Z,20.30
2019-04-19T18:25:46.768Z,20.20
2019-04-19T18:26:54.904Z,20.30
2019-04-19T18:27:59.558Z,20.30
2019-04-19T18:29:01.203Z,20.30
2019-04-19T18:30:11.794Z,20.20
2019-04-19T18:31:15.201Z,20.20
2019-04-19T18:32:38.499Z,20.00
2019-04-19T18:33:52.594Z,19.90
2019-04-19T18:34:49.001Z,20.00
2019-04-19T18:36:01.967Z,20.00
2019-04-19T18:37:00.512Z,20.00
2019-04-19T18:38:03.201Z,20.00
2019-04-19T18:39:08.453Z,19.90
2019-04-19T18:40:13.499Z,19.90
2019-04-19T18:41:17.143Z,19.90
2019-04-19T18:42:21.811Z,19.80
2019-04-19T18:43:37.736Z,19.80
2019-04-19T18:44:40.134Z,19.90
2019-04-19T18:45:40.252Z,19.80
2019-04-19T18:46:41.087Z,19.70
2019-04-19T18:47:45.225Z,19.70
2019-04-19T18:48:49.513Z,19.70
2019-04-19T18:49:53.843Z,19.70
2019-04-19T18:50:58.311Z,19.70
2019-04-19T18:52:07.579Z,19.70
2019-04-19T18:53:17.168Z,19.70
2019-04-19T18:54:19.798Z,19.70
2019-04-19T18:55:28.502Z,19.80
2019-04-19T18:56:25.433Z,19.70
2019-04-19T18:57:28.624Z,19.70
2019-04-19T18:58:34.579Z,19.60
2019-04-19T18:59:38.475Z,19.60
2019-04-19T19:00:44.918Z,19.60
2019-04-19T19:01:48.035Z,19.50
2019-04-19T19:02:55.782Z,19.50
2019-04-19T19:03:57.957Z,19.50
2019-04-19T19:05:05.714Z,19.50
2019-04-19T19:06:09.333Z,19.50
2019-04-19T19:07:17.055Z,19.50
2019-04-19T19:08:25.235Z,19.40
2019-04-19T19:09:34.599Z,19.40
2019-04-19T19:10:35.397Z,19.40
2019-04-19T19:11:33.186Z,19.40
2019-04-19T19:12:42.333Z,19.30
2019-04-19T19:13:42.806Z,19.30
2019-04-19T19:14:54.609Z,19.30
2019-04-19T19:15:56.247Z,19.30
2019-04-19T19:17:05.294Z,19.30
2019-04-19T19:18:04.306Z,19.30
2019-04-19T19:19:15.077Z,19.30
2019-04-19T19:20:20.475Z,19.20
2019-04-19T19:21:20.058Z,19.20
2019-04-19T19:22:31.786Z,19.20
2019-04-19T19:23:42.930Z,19.20
2019-04-19T19:24:52.404Z,19.30
2019-04-19T19:25:48.093Z,19.20
2019-04-19T19:26:58.496Z,19.20
2019-04-19T19:27:50.457Z,19.20
2019-04-19T19:28:54.233Z,19.20
2019-04-19T19:29:58.417Z,19.20
2019-04-19T19:31:02.932Z,19.30
2019-04-19T19:32:10.312Z,19.20
2019-04-19T19:33:16.760Z,19.20
2019-04-19T19:34:20.615Z,19.20
2019-04-19T19:35:26.323Z,19.30
2019-04-19T19:36:34.227Z,19.30
2019-04-19T19:37:35.826Z,19.20
2019-04-19T19:38:41.614Z,19.20
2019-04-19T19:39:53.855Z,19.20
2019-04-19T19:41:07.194Z,19.10
2019-04-19T19:43:25.869Z,19.20
2019-04-19T19:44:26.480Z,19.20
2019-04-19T19:45:34.045Z,19.20
2019-04-19T19:46:51.798Z,19.20
2019-04-19T19:48:03.379Z,19.20
2019-04-19T19:49:18.835Z,19.20
2019-04-19T19:50:12.623Z,19.20
2019-04-19T19:51:15.201Z,19.20
2019-04-19T19:52:18.672Z,19.10
2019-04-19T19:53:35.459Z,19.00
2019-04-19T19:55:29.699Z,18.70
2019-04-19T19:56:43.522Z,18.60
2019-04-19T19:57:38.107Z,18.50
2019-04-19T19:58:37.944Z,18.30
2019-04-19T19:59:42.143Z,18.30
2019-04-19T20:01:00.510Z,18.20
2019-04-19T20:02:00.686Z,18.10
2019-04-19T20:03:01.613Z,18.00
2019-04-19T20:03:56.807Z,18.00
2019-04-19T20:05:00.860Z,17.90
2019-04-19T20:06:10.744Z,17.80
2019-04-19T20:07:14.071Z,17.80
2019-04-19T20:08:24.938Z,17.70
2019-04-19T20:09:25.653Z,17.60
2019-04-19T20:10:32.352Z,17.60
2019-04-19T20:11:33.123Z,17.50
2019-04-19T20:12:37.726Z,17.50
2019-04-19T20:13:44.980Z,17.40
2019-04-19T20:14:47.208Z,17.40
2019-04-19T20:15:51.045Z,17.30
2019-04-19T20:17:01.180Z,17.30
2019-04-19T20:18:02.786Z,17.30
2019-04-19T20:19:05.722Z,17.30
2019-04-19T20:20:10.657Z,17.30
2019-04-19T20:21:17.820Z,17.30
2019-04-19T20:22:19.496Z,17.30
2019-04-19T20:23:30.828Z,17.30
2019-04-19T20:24:44.678Z,17.20
2019-04-19T20:25:42.965Z,17.10
2019-04-19T20:26:51.543Z,17.10
2019-04-19T20:27:48.615Z,17.10
2019-04-19T20:28:49.913Z,17.10
2019-04-19T20:29:58.173Z,17.00
2019-04-19T20:31:01.994Z,16.90
2019-04-19T20:32:09.963Z,16.80
2019-04-19T20:33:12.537Z,16.70
2019-04-19T20:34:21.547Z,16.70
2019-04-19T20:35:23.007Z,16.70
2019-04-19T20:36:25.361Z,16.60
2019-04-19T20:37:28.932Z,16.70
2019-04-19T20:38:40.388Z,16.70
2019-04-19T20:39:38.109Z,16.70
2019-04-19T20:40:49.729Z,16.70
2019-04-19T20:41:50.728Z,16.60
2019-04-19T20:43:10.798Z,16.50
2019-04-19T20:44:11.677Z,16.40
2019-04-19T20:45:08.872Z,16.40
2019-04-19T20:46:14.944Z,16.40
2019-04-19T20:47:14.670Z,16.20
2019-04-19T20:48:23.217Z,16.30
2019-04-19T20:49:23.565Z,16.30
2019-04-19T20:50:39.785Z,16.20
2019-04-19T20:51:49.455Z,16.10
2019-04-19T20:53:13.788Z,16.00
2019-04-19T20:54:37.697Z,16.00
2019-04-19T20:55:28.116Z,16.00
2019-04-19T20:56:57.942Z,16.00
2019-04-19T20:58:09.364Z,16.00
2019-04-19T20:59:01.927Z,15.90
2019-04-19T21:00:09.997Z,15.90
2019-04-19T21:01:14.812Z,15.90